Time;durP1;ratioP1;P1;durP2;ratioP2;P2;SDS_P1;SDS_P2;PMS_P1;PMS_P2;Temp;Humidity;BMP_temperature;BMP_pressure;BME280_temperature;BME280_humidity;BME280_pressure;Samples;Min_cycle;Max_cycle;Signal;HPM_P1;HPM_P2
2021/04/01 00:00:24;;;;;;;20.13;11.63;;;;;;;10.80;51.00;95234.44;5034399;28;20429;-81
2021/04/01 00:02:51;;;;;;;14.30;11.73;;;;;;;10.82;51.66;95229.06;5034450;28;20494;-81
2021/04/01 00:05:20;;;;;;;11.73;10.33;;;;;;;10.79;52.05;95219.63;5034622;28;20452;-81
2021/04/01 00:07:47;;;;;;;17.40;10.47;;;;;;;10.79;51.92;95214.38;5034199;28;20438;-81
2021/04/01 00:10:15;;;;;;;13.07;9.77;;;;;;;10.71;52.06;95213.34;5034335;28;20449;-81
2021/04/01 00:12:42;;;;;;;13.60;10.07;;;;;;;10.73;51.85;95211.44;5034066;28;20444;-81
2021/04/01 00:15:12;;;;;;;15.67;9.53;;;;;;;10.67;51.47;95206.66;5034362;28;20438;-81
2021/04/01 00:17:40;;;;;;;16.03;10.60;;;;;;;10.64;51.52;95204.25;5035097;28;20453;-81
2021/04/01 00:20:09;;;;;;;13.20;10.63;;;;;;;10.60;51.40;95201.06;5034047;28;20793;-81
2021/04/01 00:22:36;;;;;;;16.43;10.43;;;;;;;10.60;52.27;95195.81;5034423;28;20481;-81
2021/04/01 00:25:04;;;;;;;16.60;11.53;;;;;;;10.60;52.40;95194.97;5034251;28;20475;-81
2021/04/01 00:27:30;;;;;;;15.93;11.13;;;;;;;10.61;52.71;95191.41;5034119;28;20982;-80
2021/04/01 00:29:56;;;;;;;14.23;10.50;;;;;;;10.57;52.74;95184.72;5033918;28;20449;-81
2021/04/01 00:32:23;;;;;;;16.90;11.27;;;;;;;10.61;52.97;95186.16;5034294;28;20457;-81
2021/04/01 00:34:49;;;;;;;18.73;10.80;;;;;;;10.61;52.82;95184.34;5034246;28;20834;-81
2021/04/01 00:37:15;;;;;;;14.97;10.60;;;;;;;10.62;52.94;95180.78;5033980;28;20803;-81
2021/04/01 00:39:43;;;;;;;15.13;10.30;;;;;;;10.60;52.89;95172.19;5033538;28;20917;-81
2021/04/01 00:42:10;;;;;;;14.50;10.93;;;;;;;10.58;52.77;95175.91;5033790;28;20528;-81
2021/04/01 00:44:36;;;;;;;13.23;10.53;;;;;;;10.58;52.74;95181.16;5034025;28;20431;-81
2021/04/01 00:47:06;;;;;;;13.20;9.53;;;;;;;10.57;52.33;95161.94;5033881;28;20446;-80
2021/04/01 00:49:33;;;;;;;12.43;9.53;;;;;;;10.62;52.83;95162.41;5033904;28;20461;-81
2021/04/01 00:51:59;;;;;;;13.80;10.33;;;;;;;10.60;52.98;95153.00;5034205;28;20528;-80
2021/04/01 00:54:25;;;;;;;22.53;10.87;;;;;;;10.60;52.91;95151.19;5033756;28;20543;-81
2021/04/01 00:56:53;;;;;;;12.23;9.60;;;;;;;10.59;52.86;95144.28;5033470;28;20464;-81
2021/04/01 00:59:19;;;;;;;15.80;10.90;;;;;;;10.58;52.13;95150.50;5015239;28;20452;-82
2021/04/01 01:01:48;;;;;;;12.90;9.80;;;;;;;10.58;52.27;95147.03;5033506;28;20437;-81
2021/04/01 01:04:15;;;;;;;9.87;8.83;;;;;;;10.59;52.66;95146.06;5033454;28;20925;-81
2021/04/01 01:06:42;;;;;;;14.33;9.70;;;;;;;10.55;52.23;95141.09;5033528;28;20928;-81
2021/04/01 01:09:09;;;;;;;12.10;9.50;;;;;;;10.51;52.45;95139.66;5036612;28;20452;-81
2021/04/01 01:11:36;;;;;;;12.47;9.33;;;;;;;10.51;52.15;95139.66;5037732;28;21008;-81
2021/04/01 01:14:05;;;;;;;14.40;10.10;;;;;;;10.49;52.61;95131.09;5019434;28;20998;-81
2021/04/01 01:16:33;;;;;;;10.13;9.03;;;;;;;10.53;53.38;95140.38;5037385;28;20439;-81
2021/04/01 01:18:59;;;;;;;13.43;10.43;;;;;;;10.53;52.73;95137.75;5037597;28;20430;-80
2021/04/01 01:21:26;;;;;;;14.03;10.40;;;;;;;10.47;53.49;95133.00;5037583;28;20451;-81
2021/04/01 01:23:54;;;;;;;14.13;10.73;;;;;;;10.41;54.35;95117.75;5037684;28;20472;-82
2021/04/01 01:26:21;;;;;;;12.90;10.50;;;;;;;10.40;54.64;95102.94;5002578;28;20538;-82
2021/04/01 01:28:48;;;;;;;15.73;10.73;;;;;;;10.37;53.94;95100.56;5019213;28;20462;-81
2021/04/01 01:31:16;;;;;;;15.70;10.47;;;;;;;10.39;54.01;95103.91;5037337;28;20504;-80
2021/04/01 01:33:44;;;;;;;14.03;10.47;;;;;;;10.36;54.13;95085.78;5037121;28;20929;-81
2021/04/01 01:36:11;;;;;;;13.60;10.07;;;;;;;10.37;53.68;95100.56;5037270;28;20520;-81
2021/04/01 01:38:38;;;;;;;12.77;9.70;;;;;;;10.35;53.79;95089.38;5037601;28;20461;-81
2021/04/01 01:41:05;;;;;;;11.80;9.47;;;;;;;10.34;54.04;95089.50;5037097;28;20452;-81
2021/04/01 01:43:33;;;;;;;11.30;9.50;;;;;;;10.36;54.66;95087.59;5036867;28;20976;-80
2021/04/01 01:46:00;;;;;;;19.77;10.63;;;;;;;10.36;54.30;95088.41;5036754;28;20944;-81
2021/04/01 01:48:27;;;;;;;13.00;10.23;;;;;;;10.38;54.73;95081.25;5037097;28;20426;-81
2021/04/01 01:50:53;;;;;;;20.80;9.83;;;;;;;10.42;53.86;95087.13;5002094;28;20440;-81
2021/04/01 01:53:20;;;;;;;14.63;10.60;;;;;;;10.43;54.61;95076.50;5036751;28;20433;-81
2021/04/01 01:55:47;;;;;;;13.90;11.10;;;;;;;10.46;54.41;95065.75;5036603;28;20436;-81
2021/04/01 01:58:13;;;;;;;14.93;11.20;;;;;;;10.47;54.45;95064.78;5036931;28;20437;-81
2021/04/01 02:01:00;;;;;;;15.20;10.50;;;;;;;10.45;54.94;95053.59;5036752;28;20944;-81
2021/04/01 02:03:27;;;;;;;13.77;11.03;;;;;;;10.43;55.09;95052.88;5036330;28;20994;-81
2021/04/01 02:05:53;;;;;;;18.97;10.40;;;;;;;10.40;54.66;95054.91;5035798;28;20445;-81
2021/04/01 02:08:20;;;;;;;12.50;10.90;;;;;;;10.40;54.84;95054.91;5036133;28;20456;-81
2021/04/01 02:10:48;;;;;;;12.47;9.20;;;;;;;10.43;55.07;95057.31;5036283;28;20451;-81
2021/04/01 02:13:17;;;;;;;16.10;10.80;;;;;;;10.43;55.10;95060.75;5036307;28;20449;-81
2021/04/01 02:15:45;;;;;;;12.83;10.17;;;;;;;10.46;54.87;95063.13;5036251;28;20510;-81
2021/04/01 02:18:14;;;;;;;12.57;10.10;;;;;;;10.48;55.44;95063.84;5035980;28;20448;-81
2021/04/01 02:20:42;;;;;;;14.00;9.80;;;;;;;10.47;55.78;95062.16;5036058;28;20441;-81
2021/04/01 02:23:10;;;;;;;12.90;9.80;;;;;;;10.50;55.44;95063.72;5036771;28;20545;-81
2021/04/01 02:25:37;;;;;;;16.03;11.03;;;;;;;10.46;55.65;95051.81;5036333;28;20457;-81
2021/04/01 02:28:04;;;;;;;16.07;10.67;;;;;;;10.45;55.36;95063.25;5036165;28;20446;-82
2021/04/01 02:30:31;;;;;;;15.07;10.93;;;;;;;10.45;55.56;95074.56;5001338;28;20454;-81
2021/04/01 02:32:58;;;;;;;17.37;11.17;;;;;;;10.43;55.74;95073.03;5036004;28;20575;-81
2021/04/01 02:35:25;;;;;;;14.43;10.17;;;;;;;10.39;55.20;95072.44;5036042;28;20438;-80
2021/04/01 02:37:51;;;;;;;20.47;13.17;;;;;;;10.36;55.41;95088.41;5036592;28;20461;-81
2021/04/01 02:40:19;;;;;;;25.37;16.90;;;;;;;10.22;55.96;95086.91;5036243;28;20456;-81
2021/04/01 02:42:45;;;;;;;22.83;16.30;;;;;;;10.11;56.74;95099.16;5036345;28;20494;-80
2021/04/01 02:45:13;;;;;;;18.93;13.83;;;;;;;10.04;57.26;95108.47;5036238;28;20452;-81
2021/04/01 02:47:40;;;;;;;19.00;14.50;;;;;;;9.93;57.59;95104.94;5035987;28;20448;-81
2021/04/01 02:50:08;;;;;;;17.83;13.43;;;;;;;9.85;57.49;95106.50;5036055;28;20448;-82
2021/04/01 02:52:36;;;;;;;19.87;13.80;;;;;;;9.68;57.85;95106.97;5036259;28;20436;-81
2021/04/01 02:55:04;;;;;;;16.30;12.27;;;;;;;9.62;57.76;95106.50;5035737;28;20448;-81
2021/04/01 02:57:31;;;;;;;19.70;14.60;;;;;;;9.66;58.42;95109.72;5035800;28;20444;-81
2021/04/01 02:59:57;;;;;;;25.63;13.80;;;;;;;9.71;58.17;95112.81;5035623;28;20447;-80
2021/04/01 03:02:26;;;;;;;21.93;14.57;;;;;;;9.82;57.88;95107.53;5035080;28;20496;-81
2021/04/01 03:04:53;;;;;;;18.53;13.90;;;;;;;9.95;57.65;95115.31;5035500;28;20435;-81
2021/04/01 03:07:19;;;;;;;24.57;14.50;;;;;;;10.02;58.07;95113.84;5017136;28;20456;-82
2021/04/01 03:09:47;;;;;;;20.53;14.20;;;;;;;10.11;58.13;95104.41;5035114;28;20471;-81
2021/04/01 03:12:13;;;;;;;27.73;14.73;;;;;;;10.14;57.82;95097.16;5035252;28;20447;-81
2021/04/01 03:14:39;;;;;;;21.13;14.30;;;;;;;10.18;57.42;95105.63;5016684;28;20454;-81
2021/04/01 03:17:06;;;;;;;19.53;11.80;;;;;;;10.16;57.60;95097.88;5035447;28;20444;-81
2021/04/01 03:19:32;;;;;;;15.60;12.37;;;;;;;10.16;58.70;95103.13;5035422;28;20448;-81
2021/04/01 03:21:58;;;;;;;14.20;11.77;;;;;;;10.17;58.64;95102.16;5034927;28;20626;-81
2021/04/01 03:24:25;;;;;;;29.97;12.73;;;;;;;10.19;58.50;95099.41;5035332;28;20439;-81
2021/04/01 03:26:52;;;;;;;24.10;12.77;;;;;;;10.26;57.53;95103.25;5034766;28;20494;-81
2021/04/01 03:29:18;;;;;;;15.43;12.53;;;;;;;10.25;57.79;95085.84;5034883;28;20464;-81
2021/04/01 03:31:45;;;;;;;16.07;11.47;;;;;;;10.27;58.15;95083.94;5034446;28;20449;-81
2021/04/01 03:34:11;;;;;;;17.43;13.03;;;;;;;10.27;58.37;95083.94;5035090;28;20440;-81
2021/04/01 03:36:38;;;;;;;26.70;13.50;;;;;;;10.29;58.48;95082.00;5034811;28;20496;-81
2021/04/01 03:39:04;;;;;;;22.60;12.40;;;;;;;10.30;58.09;95082.84;5034664;28;20947;-81
2021/04/01 03:41:31;;;;;;;19.10;13.53;;;;;;;10.29;58.87;95076.75;5034904;28;20459;-81
2021/04/01 03:43:58;;;;;;;19.90;12.73;;;;;;;10.31;58.22;95077.47;5034388;28;20570;-81
2021/04/01 03:46:24;;;;;;;21.50;12.40;;;;;;;10.19;58.20;95087.13;5034974;28;20444;-81
2021/04/01 03:48:50;;;;;;;30.60;13.60;;;;;;;10.20;58.21;95088.84;5034487;28;20867;-81
2021/04/01 03:51:17;;;;;;;27.40;14.40;;;;;;;10.19;58.13;95084.50;5035044;28;20446;-81
2021/04/01 03:53:43;;;;;;;20.87;15.00;;;;;;;10.23;58.47;95079.88;5034459;28;20803;-81
2021/04/01 03:56:10;;;;;;;21.67;14.10;;;;;;;10.23;58.52;95082.50;5034490;28;20529;-81
2021/04/01 03:58:47;;;;;;;27.70;12.90;;;;;;;10.22;58.90;95083.47;5034651;28;20450;-81
2021/04/01 04:01:57;;;;;;;14.17;11.63;;;;;;;10.16;59.17;95076.06;5012868;28;20433;-82
2021/04/01 04:04:41;;;;;;;17.47;12.03;;;;;;;10.20;58.54;95087.97;5012417;28;20540;-81
2021/04/01 04:10:02;;;;;;;16.13;11.10;;;;;;;10.14;58.75;95088.47;5012726;28;20955;-82
2021/04/01 04:12:39;;;;;;;19.67;12.33;;;;;;;10.13;58.30;95085.00;4963644;28;20484;-80
2021/04/01 04:15:09;;;;;;;20.20;11.67;;;;;;;10.12;59.07;95079.84;5012386;28;20949;-81
2021/04/01 04:17:39;;;;;;;15.90;11.20;;;;;;;10.15;58.37;95090.13;4980437;28;21015;-82
2021/04/01 04:20:07;;;;;;;18.97;12.77;;;;;;;10.16;58.08;95086.56;5004218;28;21006;-81
2021/04/01 04:22:34;;;;;;;17.60;11.87;;;;;;;10.17;57.65;95089.06;5034834;28;20526;-81
2021/04/01 04:25:01;;;;;;;22.30;12.00;;;;;;;10.16;58.11;95095.25;5034049;28;20925;-81
2021/04/01 04:30:10;;;;;;;25.77;12.33;;;;;;;10.19;58.35;95099.41;4972783;28;20928;-81
2021/04/01 04:32:36;;;;;;;20.53;12.77;;;;;;;10.18;58.44;95098.59;4924915;28;20542;-81
2021/04/01 04:35:05;;;;;;;28.90;12.70;;;;;;;10.17;58.58;95103.94;4973137;28;20502;-81
2021/04/01 04:37:31;;;;;;;17.80;12.60;;;;;;;10.20;59.00;95111.56;4972978;28;20891;-82
2021/04/01 04:39:57;;;;;;;23.07;11.83;;;;;;;10.18;59.61;95110.88;4973186;28;20445;-81
2021/04/01 04:42:24;;;;;;;20.20;12.80;;;;;;;10.16;59.50;95102.28;4973150;28;20832;-81
2021/04/01 04:44:50;;;;;;;15.70;11.60;;;;;;;10.19;59.93;95115.16;4972896;28;20946;-81
2021/04/01 04:47:16;;;;;;;23.80;13.13;;;;;;;10.16;59.84;95113.59;4972900;28;20454;-81
2021/04/01 04:49:43;;;;;;;24.30;14.23;;;;;;;10.16;59.68;95118.84;4972935;28;20535;-82
2021/04/01 04:52:10;;;;;;;20.30;12.50;;;;;;;10.17;59.93;95123.13;4973872;28;20443;-81
2021/04/01 04:54:38;;;;;;;19.53;13.67;;;;;;;10.14;59.58;95119.94;4974082;28;20438;-81
2021/04/01 04:57:12;;;;;;;20.97;14.17;;;;;;;10.20;59.45;95130.78;4974822;28;20472;-81
2021/04/01 04:59:43;;;;;;;29.43;14.47;;;;;;;10.19;59.75;95129.09;4975063;28;20466;-82
2021/04/01 05:04:55;;;;;;;26.57;14.23;;;;;;;10.20;59.96;95132.56;4972850;28;20450;-81
2021/04/01 05:07:22;;;;;;;20.60;13.00;;;;;;;10.23;59.36;95132.34;5003723;28;20447;-81
2021/04/01 05:09:49;;;;;;;36.07;15.90;;;;;;;10.22;59.96;95130.66;5033673;28;20456;-81
2021/04/01 05:12:15;;;;;;;27.67;14.80;;;;;;;10.23;60.49;95133.16;5034056;28;20789;-81
2021/04/01 05:14:42;;;;;;;34.63;16.20;;;;;;;10.27;60.09;95146.88;5033602;28;20543;-81
2021/04/01 05:17:08;;;;;;;31.10;17.53;;;;;;;10.29;59.46;95137.09;5033321;28;21045;-81
2021/04/01 05:19:37;;;;;;;28.10;15.47;;;;;;;10.28;60.32;95139.84;5033475;28;20449;-81
2021/04/01 05:22:06;;;;;;;28.63;17.40;;;;;;;10.29;59.63;95142.34;5032911;28;20456;-82
2021/04/01 05:24:37;;;;;;;28.13;15.13;;;;;;;10.34;59.72;95139.34;5015030;28;20805;-82
2021/04/01 05:27:22;;;;;;;32.87;15.73;;;;;;;10.30;59.64;95146.63;5034128;28;20536;-82
2021/04/01 05:29:58;;;;;;;19.83;14.17;;;;;;;10.32;58.89;95142.09;5033568;28;20459;-81
2021/04/01 05:32:25;;;;;;;22.73;15.00;;;;;;;10.35;59.04;95149.72;5033856;28;20452;-81
2021/04/01 05:34:52;;;;;;;23.30;14.30;;;;;;;10.38;59.56;95149.47;5037291;28;20456;-82
2021/04/01 05:37:19;;;;;;;28.90;15.03;;;;;;;10.42;59.43;95140.41;5036460;28;21011;-81
2021/04/01 05:39:47;;;;;;;28.70;17.40;;;;;;;10.45;59.16;95145.41;5036903;28;20506;-81
2021/04/01 05:42:16;;;;;;;51.97;22.00;;;;;;;10.48;58.70;95147.78;5032900;28;20443;-81
2021/04/01 05:44:44;;;;;;;34.83;17.00;;;;;;;10.49;59.45;95136.34;5033507;28;20437;-81
2021/04/01 05:47:15;;;;;;;27.40;16.23;;;;;;;10.58;58.78;95149.66;5034616;28;20449;-82
2021/04/01 05:49:59;;;;;;;31.67;21.87;;;;;;;10.66;58.80;95152.50;5035116;28;20520;-81
2021/04/01 05:58:53;;;;;;;63.97;37.33;;;;;;;10.87;59.93;95156.00;5047263;28;20461;-82
2021/04/01 06:04:24;;;;;;;51.67;20.50;;;;;;;11.06;59.10;95161.41;5003087;28;20506;-81
2021/04/01 06:06:53;;;;;;;37.93;18.70;;;;;;;11.14;58.11;95163.41;5002652;28;20446;-82
2021/04/01 06:09:24;;;;;;;53.20;18.20;;;;;;;11.24;57.36;95166.09;4996361;28;20506;-82
2021/04/01 06:11:53;;;;;;;52.87;19.70;;;;;;;11.34;58.35;95177.53;5003180;28;20542;-82
2021/04/01 06:14:55;;;;;;;46.67;20.97;;;;;;;11.39;57.15;95175.34;4997299;28;20519;-81
2021/04/01 06:17:25;;;;;;;57.47;20.17;;;;;;;11.43;56.36;95174.97;4997170;28;20951;-82
2021/04/01 06:19:55;;;;;;;53.80;19.43;;;;;;;11.54;56.06;95181.94;4996645;28;20451;-82
2021/04/01 06:22:23;;;;;;;37.77;17.27;;;;;;;11.64;56.04;95182.00;5003614;28;20448;-80
2021/04/01 06:24:52;;;;;;;42.57;17.77;;;;;;;11.81;56.03;95176.16;4999351;28;20455;-81
2021/04/01 06:27:23;;;;;;;23.20;16.20;;;;;;;12.09;54.77;95172.84;4997840;28;20789;-81
2021/04/01 06:30:16;;;;;;;39.10;15.80;;;;;;;12.37;53.34;95184.44;4994784;28;20448;-81
2021/04/01 06:32:48;;;;;;;30.20;15.50;;;;;;;12.86;52.29;95176.66;4996721;28;20452;-81
2021/04/01 06:35:22;;;;;;;25.87;17.70;;;;;;;13.36;50.81;95174.78;4997703;28;20878;-81
2021/04/01 06:40:48;;;;;;;32.57;19.27;;;;;;;14.95;44.25;95175.56;5009209;28;20813;-82
2021/04/01 06:43:33;;;;;;;33.13;20.33;;;;;;;15.45;42.92;95179.38;5037924;28;20478;-81
2021/04/01 06:46:01;;;;;;;32.83;19.43;;;;;;;15.98;42.70;95167.88;5037333;28;20801;-82
2021/04/01 06:48:48;;;;;;;30.70;18.27;;;;;;;16.51;40.59;95171.31;5036946;28;20517;-82
2021/04/01 06:51:18;;;;;;;26.10;18.30;;;;;;;17.01;39.60;95174.78;5038267;28;20444;-81
2021/04/01 06:53:57;;;;;;;20.63;16.70;;;;;;;17.55;38.35;95175.19;5036482;28;20505;-81
2021/04/01 06:56:35;;;;;;;27.37;16.40;;;;;;;18.02;37.49;95174.53;5036747;28;20433;-80
2021/04/01 06:59:13;;;;;;;29.30;16.90;;;;;;;18.16;35.82;95173.00;5037155;28;20906;-81
2021/04/01 07:01:47;;;;;;;28.77;17.30;;;;;;;18.11;35.95;95168.19;5037726;28;20538;-82
2021/04/01 07:04:15;;;;;;;22.73;15.00;;;;;;;17.95;36.53;95177.03;5037119;28;20477;-82
2021/04/01 07:06:43;;;;;;;22.97;15.67;;;;;;;17.81;36.69;95179.53;5039192;28;20476;-82
2021/04/01 07:09:35;;;;;;;21.30;16.60;;;;;;;17.59;37.30;95181.81;5043921;28;20443;-83
2021/04/01 07:12:16;;;;;;;23.83;15.70;;;;;;;17.78;37.86;95170.06;5036822;28;20466;-82
2021/04/01 07:14:44;;;;;;;22.20;16.17;;;;;;;17.77;37.37;95180.84;5035755;28;20458;-82
2021/04/01 07:17:16;;;;;;;21.70;16.20;;;;;;;17.45;37.68;95179.00;5035339;28;20439;-82
2021/04/01 07:19:53;;;;;;;38.53;18.27;;;;;;;17.14;38.83;95176.97;5035310;28;20438;-82
2021/04/01 07:22:52;;;;;;;27.07;16.63;;;;;;;16.80;40.11;95186.84;5036216;28;20477;-82
2021/04/01 07:31:26;;;;;;;43.67;18.40;;;;;;;16.10;41.37;95187.78;5034884;28;20414;-82
2021/04/01 07:45:07;;;;;;;31.70;17.73;;;;;;;13.60;46.58;95188.34;5034617;28;20407;-82
2021/04/01 07:47:37;;;;;;;23.83;15.00;;;;;;;13.48;47.31;95192.09;5035428;28;20455;-81
2021/04/01 07:50:10;;;;;;;24.47;17.00;;;;;;;13.46;47.50;95186.13;5034933;28;20435;-82
2021/04/01 07:52:37;;;;;;;26.90;17.63;;;;;;;13.90;47.52;95186.47;5034572;28;20447;-81
2021/04/01 07:55:12;;;;;;;23.83;15.97;;;;;;;14.24;46.51;95194.69;5034936;28;20443;-82
2021/04/01 07:57:59;;;;;;;20.40;14.93;;;;;;;14.78;45.81;95185.16;5034751;28;20473;-82
2021/04/01 08:00:29;;;;;;;23.00;16.13;;;;;;;15.42;44.89;95184.97;5034749;28;21037;-82
2021/04/01 08:05:41;;;;;;;20.97;15.23;;;;;;;16.34;41.92;95183.63;5034455;28;20452;-82
2021/04/01 08:08:11;;;;;;;25.40;17.67;;;;;;;16.28;41.84;95182.44;5034389;28;20446;-82
2021/04/01 08:10:42;;;;;;;18.20;14.37;;;;;;;16.39;42.70;95176.84;5034227;28;20431;-82
2021/04/01 08:13:11;;;;;;;14.53;13.03;;;;;;;16.46;42.84;95171.75;5037859;28;20450;-82
2021/04/01 08:15:44;;;;;;;16.00;12.70;;;;;;;16.63;41.92;95168.19;5042954;28;20480;-80
2021/04/01 08:20:56;;;;;;;16.70;11.60;;;;;;;16.68;42.33;95162.44;4965210;29;20543;-80
2021/04/01 08:23:29;;;;;;;19.83;12.07;;;;;;;16.80;42.10;95152.38;4961043;29;20483;-82
2021/04/01 08:26:07;;;;;;;15.07;9.57;;;;;;;16.88;41.28;95161.19;4964611;29;20920;-81
2021/04/01 08:34:17;;;;;;;15.97;12.10;;;;;;;17.39;39.73;95171.72;4959579;29;20430;-82
2021/04/01 08:36:46;;;;;;;15.30;12.13;;;;;;;17.17;39.62;95167.88;4953775;29;20548;-82
2021/04/01 08:39:14;;;;;;;19.93;11.43;;;;;;;17.15;39.61;95172.50;4922277;29;20927;-81
2021/04/01 08:42:00;;;;;;;15.53;11.33;;;;;;;16.82;39.51;95168.94;4955035;29;20447;-82
2021/04/01 08:44:48;;;;;;;19.47;12.07;;;;;;;17.18;39.70;95169.53;4953953;29;20489;-81
2021/04/01 08:47:31;;;;;;;17.83;10.67;;;;;;;17.34;39.50;95165.06;4953691;29;20552;-81
2021/04/01 08:50:13;;;;;;;16.70;12.50;;;;;;;17.38;39.21;95164.75;4921701;29;20441;-81
2021/04/01 08:53:05;;;;;;;16.53;12.50;;;;;;;17.50;38.98;95164.25;4953774;29;20462;-81
2021/04/01 08:55:37;;;;;;;16.73;11.60;;;;;;;17.60;38.90;95158.75;4953599;29;20499;-82
2021/04/01 08:58:12;;;;;;;19.13;12.90;;;;;;;17.61;37.90;95158.59;4993584;28;20452;-81
2021/04/01 09:00:44;;;;;;;19.17;10.53;;;;;;;17.48;37.43;95157.44;5033519;28;20968;-82
2021/04/01 09:03:12;;;;;;;15.03;10.50;;;;;;;17.26;37.60;95150.97;5033939;28;20492;-81
2021/04/01 09:05:51;;;;;;;18.90;10.73;;;;;;;16.84;38.58;95146.59;5015369;28;21237;-81
2021/04/01 09:08:23;;;;;;;10.47;9.47;;;;;;;16.72;39.33;95154.00;5031833;28;21000;-81
2021/04/01 09:10:53;;;;;;;13.00;9.67;;;;;;;16.80;39.15;95152.38;5034057;28;20482;-81
2021/04/01 09:13:26;;;;;;;15.43;10.10;;;;;;;16.73;39.09;95150.34;5033842;28;20501;-81
2021/04/01 09:15:55;;;;;;;15.17;10.77;;;;;;;16.78;39.04;95147.25;5033652;28;20424;-81
2021/04/01 09:18:23;;;;;;;15.40;10.60;;;;;;;16.73;39.19;95149.53;5034064;28;20790;-81
2021/04/01 09:20:52;;;;;;;17.20;10.80;;;;;;;16.56;38.63;95148.63;5033370;28;20972;-81
2021/04/01 09:23:22;;;;;;;15.00;10.50;;;;;;;16.63;39.27;95138.22;5033674;28;20488;-82
2021/04/01 09:25:49;;;;;;;15.57;10.60;;;;;;;16.62;38.35;95136.56;5033698;28;20816;-81
2021/04/01 09:28:16;;;;;;;12.33;10.40;;;;;;;16.87;38.28;95129.53;5033357;28;20544;-81
2021/04/01 09:30:44;;;;;;;11.30;9.20;;;;;;;17.10;37.25;95119.13;5037157;28;21189;-80
2021/04/01 09:33:18;;;;;;;10.40;8.80;;;;;;;17.33;37.46;95117.47;5037573;28;20441;-82
2021/04/01 09:35:45;;;;;;;13.00;10.00;;;;;;;17.41;37.37;95119.31;5037413;28;20449;-82
2021/04/01 09:38:13;;;;;;;15.73;9.30;;;;;;;17.45;37.09;95123.28;5037011;28;20860;-82
2021/04/01 09:40:41;;;;;;;12.57;10.50;;;;;;;17.59;38.11;95118.13;5037292;28;20549;-81
2021/04/01 09:43:09;;;;;;;13.00;9.00;;;;;;;17.04;36.08;95125.91;5036964;28;20485;-82
2021/04/01 09:45:36;;;;;;;10.13;8.33;;;;;;;17.18;36.59;95119.13;5037203;28;20447;-81
2021/04/01 09:48:04;;;;;;;11.57;9.20;;;;;;;17.32;36.87;95114.00;5019013;28;20453;-81
2021/04/01 09:50:33;;;;;;;9.50;8.50;;;;;;;17.19;35.58;95116.31;5037251;28;20453;-81
2021/04/01 09:53:01;;;;;;;12.10;8.67;;;;;;;17.37;37.11;95116.16;5036831;28;20935;-82
2021/04/01 09:55:39;;;;;;;10.00;7.93;;;;;;;17.29;35.00;95113.50;5037447;28;20785;-81
2021/04/01 09:58:21;;;;;;;7.87;7.00;;;;;;;17.14;34.00;95100.06;5036716;28;20952;-82
2021/04/01 10:01:03;;;;;;;9.43;7.10;;;;;;;17.08;34.57;95095.44;5036995;28;21143;-82
2021/04/01 10:03:35;;;;;;;11.57;8.73;;;;;;;16.53;35.75;95085.38;5037287;28;20584;-82
2021/04/01 10:06:02;;;;;;;10.67;7.30;;;;;;;16.20;33.72;95078.31;5036580;28;20455;-82
2021/04/01 10:08:30;;;;;;;10.00;7.17;;;;;;;16.52;33.72;95082.88;5036679;28;20447;-82
2021/04/01 10:11:00;;;;;;;11.33;6.20;;;;;;;16.62;33.85;95076.44;5036509;28;20504;-82
2021/04/01 10:13:27;;;;;;;11.33;6.50;;;;;;;16.70;32.68;95075.66;5036378;28;20443;-82
2021/04/01 10:15:55;;;;;;;9.90;6.63;;;;;;;16.68;32.93;95073.16;5037131;28;20895;-82
2021/04/01 10:18:28;;;;;;;8.20;7.30;;;;;;;16.87;33.03;95072.06;5036492;28;20453;-82
2021/04/01 10:21:00;;;;;;;17.13;7.10;;;;;;;17.06;32.26;95073.56;5036532;28;20471;-82
2021/04/01 10:23:27;;;;;;;7.13;5.70;;;;;;;17.26;30.54;95074.03;5036736;28;20820;-82
2021/04/01 10:26:04;;;;;;;8.13;5.60;;;;;;;17.41;30.38;95072.41;5036182;28;20440;-82
2021/04/01 10:28:40;;;;;;;10.23;6.83;;;;;;;17.50;32.29;95065.25;5036334;28;20475;-82
2021/04/01 10:31:12;;;;;;;9.13;6.53;;;;;;;17.31;29.36;95058.44;5036347;28;20533;-82
2021/04/01 10:33:52;;;;;;;9.60;6.23;;;;;;;17.04;29.98;95063.09;5036251;28;20445;-82
2021/04/01 10:36:24;;;;;;;6.50;5.80;;;;;;;17.11;29.33;95052.69;5001203;28;20464;-81
2021/04/01 10:38:53;;;;;;;10.63;6.57;;;;;;;17.05;29.01;95050.66;5036078;28;20464;-82
2021/04/01 10:41:21;;;;;;;8.63;6.17;;;;;;;16.78;29.23;95041.25;5035596;28;20453;-82
2021/04/01 10:43:53;;;;;;;9.40;6.67;;;;;;;16.76;29.00;95039.72;5035893;28;20490;-82
2021/04/01 10:46:20;;;;;;;9.80;6.50;;;;;;;16.53;30.29;95043.00;5036550;28;20430;-82
2021/04/01 10:48:51;;;;;;;6.10;5.30;;;;;;;16.55;28.06;95040.16;5036084;28;20794;-82
2021/04/01 10:51:18;;;;;;;7.90;5.13;;;;;;;16.69;28.37;95037.72;5036153;28;20432;-81
2021/04/01 10:53:45;;;;;;;8.33;6.30;;;;;;;16.80;28.30;95033.13;5035925;28;20461;-82
2021/04/01 10:56:13;;;;;;;7.00;5.57;;;;;;;16.96;28.11;95025.16;5035741;28;20456;-82
2021/04/01 10:58:52;;;;;;;11.03;5.90;;;;;;;17.17;28.47;95029.97;5035517;28;20803;-82
2021/04/01 11:01:21;;;;;;;8.10;5.57;;;;;;;17.18;25.81;95027.16;5017771;28;20783;-82
2021/04/01 11:03:51;;;;;;;5.07;4.67;;;;;;;17.19;25.86;95022.66;5035891;28;20589;-82
2021/04/01 11:06:18;;;;;;;6.93;5.10;;;;;;;17.25;27.19;95022.81;5001361;28;20505;-82
2021/04/01 11:08:46;;;;;;;6.63;4.50;;;;;;;17.44;25.97;95013.69;5000959;28;20459;-82
2021/04/01 11:11:13;;;;;;;9.40;4.10;;;;;;;17.21;25.01;95015.38;5036064;28;20492;-82
2021/04/01 11:13:41;;;;;;;5.13;4.40;;;;;;;16.75;24.42;95008.91;5017145;28;20448;-83
2021/04/01 11:16:10;;;;;;;6.60;4.30;;;;;;;16.47;24.71;95011.81;5035350;28;20533;-82
2021/04/01 11:18:39;;;;;;;6.27;5.00;;;;;;;16.57;25.66;95001.91;5035499;28;20446;-82
2021/04/01 11:21:06;;;;;;;5.27;4.67;;;;;;;16.45;24.98;94997.91;5035372;28;20852;-82
2021/04/01 11:23:35;;;;;;;11.20;4.90;;;;;;;16.46;24.65;94988.97;5035266;28;20500;-82
2021/04/01 11:26:02;;;;;;;5.30;4.10;;;;;;;16.70;25.18;94994.34;5035122;28;20453;-82
2021/04/01 11:28:37;;;;;;;20.87;5.60;;;;;;;17.00;24.93;94984.06;5035309;28;20446;-82
2021/04/01 11:31:04;;;;;;;6.93;4.90;;;;;;;17.20;24.92;94981.91;5016742;28;20485;-82
2021/04/01 11:33:32;;;;;;;5.33;4.83;;;;;;;17.43;23.76;94977.53;5035467;28;20444;-82
2021/04/01 11:36:11;;;;;;;25.73;4.63;;;;;;;17.52;22.81;94975.69;5034849;28;20447;-82
2021/04/01 11:38:43;;;;;;;9.23;4.40;;;;;;;17.57;22.43;94979.47;5034809;28;20455;-82
2021/04/01 11:41:13;;;;;;;4.97;4.00;;;;;;;17.27;22.96;94966.97;5000137;28;20438;-82
2021/04/01 11:43:40;;;;;;;5.80;4.53;;;;;;;17.24;23.38;94973.44;5035404;28;20484;-82
2021/04/01 11:46:18;;;;;;;5.80;4.50;;;;;;;17.29;23.61;94964.97;5035491;28;20438;-82
2021/04/01 11:48:46;;;;;;;7.83;4.07;;;;;;;17.34;23.44;94963.44;5034854;28;20924;-82
2021/04/01 11:51:18;;;;;;;4.87;4.33;;;;;;;17.50;23.37;94961.78;5034300;28;20454;-82
2021/04/01 11:53:45;;;;;;;7.10;4.23;;;;;;;17.52;23.13;94949.97;5034583;28;20507;-82
2021/04/01 11:56:11;;;;;;;6.17;4.47;;;;;;;17.31;21.24;94947.06;5034871;28;20447;-82
2021/04/01 11:58:38;;;;;;;4.83;4.33;;;;;;;17.11;21.05;94941.31;5034846;28;20465;-81
2021/04/01 12:01:13;;;;;;;6.10;3.80;;;;;;;17.09;22.07;94953.09;5035077;28;20429;-82
2021/04/01 12:03:54;;;;;;;13.37;5.07;;;;;;;17.10;22.96;94950.25;5034957;28;20491;-82
2021/04/01 12:06:23;;;;;;;11.87;4.67;;;;;;;17.06;23.32;94953.41;5033066;28;20476;-82
2021/04/01 12:08:50;;;;;;;5.47;4.50;;;;;;;17.02;22.84;94950.25;5033550;28;20532;-82
2021/04/01 12:11:16;;;;;;;14.10;3.97;;;;;;;17.01;22.32;94945.94;5033250;28;20508;-82
2021/04/01 12:13:42;;;;;;;6.60;3.97;;;;;;;17.15;23.07;94937.31;5032976;28;20448;-82
2021/04/01 12:16:19;;;;;;;5.53;4.47;;;;;;;17.29;22.67;94927.81;5033045;28;20476;-82
2021/04/01 12:18:47;;;;;;;5.57;4.40;;;;;;;17.30;21.97;94909.09;5033125;28;21030;-83
2021/04/01 12:21:13;;;;;;;4.40;4.00;;;;;;;17.25;21.36;94918.56;5033327;28;20543;-82
2021/04/01 12:23:46;;;;;;;5.13;4.50;;;;;;;17.15;22.22;94921.41;5033174;28;20487;-82